createdAt,value
2019-05-11T07:16:30.286Z,43.5913
2019-05-11T07:16:58.076Z,43.8110
2019-05-11T07:17:06.577Z,43.8110
2019-05-11T07:17:15.074Z,43.8110
2019-05-11T07:17:23.578Z,43.8110
2019-05-11T07:17:32.148Z,43.8110
2019-05-11T07:17:40.900Z,47.2046
2019-05-11T07:17:49.352Z,47.3816
2019-05-11T07:17:57.852Z,51.1719
2019-05-11T07:18:07.394Z,46.6614
2019-05-11T07:18:15.900Z,45.6604
2019-05-11T07:18:24.396Z,46.1609
2019-05-11T07:18:32.903Z,44.2444
2019-05-11T07:18:41.407Z,43.4509
2019-05-11T07:18:49.925Z,47.8333
2019-05-11T07:18:58.424Z,51.0986
2019-05-11T07:19:06.869Z,52.2949
2019-05-11T07:19:15.374Z,46.6919
2019-05-11T07:19:23.864Z,46.8933
2019-05-11T07:19:32.354Z,44.6045
2019-05-11T07:19:40.833Z,42.8894
2019-05-11T07:19:49.340Z,42.1936
2019-05-11T07:19:57.844Z,41.9128
2019-05-11T07:20:25.800Z,41.5161
2019-05-11T07:20:49.116Z,41.5161
2019-05-11T07:20:50.730Z,41.7114
2019-05-11T07:20:59.512Z,41.9312
2019-05-11T07:21:08.015Z,41.8335
2019-05-11T07:21:16.523Z,41.8335
2019-05-11T07:21:25.019Z,41.9312
2019-05-11T07:21:33.551Z,42.5537
2019-05-11T07:21:42.066Z,47.9126
2019-05-11T07:21:50.570Z,45.0195
2019-05-11T07:21:59.064Z,44.1223
2019-05-11T07:22:07.562Z,43.0298
2019-05-11T07:22:16.064Z,42.5293
2019-05-11T07:22:24.551Z,42.1326
2019-05-11T07:22:33.114Z,42.8284
2019-05-11T07:22:41.644Z,42.6331
2019-05-11T07:22:50.146Z,42.7307
2019-05-11T07:22:58.638Z,42.8284
2019-05-11T07:23:07.129Z,42.5293
2019-05-11T07:23:15.629Z,42.3523
2019-05-11T07:23:24.149Z,42.3523
2019-05-11T07:23:32.649Z,42.3523
2019-05-11T07:23:41.215Z,42.3523
2019-05-11T07:23:49.766Z,42.3523
2019-05-11T07:23:58.281Z,42.3523
2019-05-11T07:24:06.799Z,42.3523
2019-05-11T07:24:15.296Z,42.5537
2019-05-11T07:24:23.803Z,42.4500
2019-05-11T07:24:33.608Z,42.5537
2019-05-11T07:24:42.174Z,42.7490
2019-05-11T07:24:50.689Z,42.8528
2019-05-11T07:24:59.186Z,42.6697
2019-05-11T07:25:16.140Z,42.7734
2019-05-11T07:25:24.644Z,42.7734
2019-05-11T07:25:33.142Z,42.7734
2019-05-11T07:25:41.639Z,42.8711
2019-05-11T07:25:50.135Z,43.0725
2019-05-11T07:26:00.245Z,43.2678
2019-05-11T07:26:08.937Z,43.1702
2019-05-11T07:26:25.907Z,43.1702
2019-05-11T07:26:34.406Z,43.1702
2019-05-11T07:26:42.901Z,43.0725
2019-05-11T07:26:51.402Z,43.1702
2019-05-11T07:26:59.951Z,43.1702
2019-05-11T07:27:08.447Z,42.9688
2019-05-11T07:27:25.408Z,43.0725
2019-05-11T07:27:33.911Z,43.1885
2019-05-11T07:27:42.399Z,43.1885
2019-05-11T07:27:50.899Z,43.0908
2019-05-11T07:27:59.380Z,43.1885
2019-05-11T07:28:16.357Z,43.1885
2019-05-11T07:28:24.846Z,43.2922
2019-05-11T07:28:33.351Z,43.2922
2019-05-11T07:28:41.850Z,43.3899
2019-05-11T07:28:50.349Z,43.3899
2019-05-11T07:28:58.847Z,43.3899
2019-05-11T07:29:15.863Z,43.3899
2019-05-11T07:29:24.373Z,43.4875
2019-05-11T07:29:32.873Z,43.4875
2019-05-11T07:29:41.369Z,43.4875
2019-05-11T07:29:49.870Z,43.5913
2019-05-11T07:29:58.367Z,43.5913
2019-05-11T07:30:15.339Z,43.6096
2019-05-11T07:30:23.864Z,43.6096
2019-05-11T07:30:32.360Z,43.7073
2019-05-11T07:30:40.866Z,43.7073
2019-05-11T07:30:49.356Z,43.7073
2019-05-11T07:31:06.324Z,43.7073
2019-05-11T07:31:14.822Z,43.6096
2019-05-11T07:31:23.318Z,43.7073
2019-05-11T07:31:31.829Z,43.6096
2019-05-11T07:31:40.359Z,43.6096
2019-05-11T07:31:48.868Z,43.6096
2019-05-11T07:32:16.476Z,43.7073
2019-05-11T07:32:25.600Z,43.8110
2019-05-11T07:32:34.856Z,43.8110
2019-05-11T07:32:43.365Z,43.8110
2019-05-11T07:32:51.852Z,43.8110
2019-05-11T07:33:01.077Z,43.8110
2019-05-11T07:33:09.715Z,43.8110
2019-05-11T07:33:18.388Z,43.8110
2019-05-11T07:33:28.700Z,43.8110
2019-05-11T07:33:37.997Z,43.8110
2019-05-11T07:33:48.617Z,43.9087
2019-05-11T07:33:58.731Z,43.9087
2019-05-11T07:34:08.117Z,43.9087
2019-05-11T07:34:18.505Z,43.9087
2019-05-11T07:34:27.782Z,43.9087
2019-05-11T07:34:38.360Z,43.9087
2019-05-11T07:34:48.711Z,43.9087
2019-05-11T07:34:57.787Z,43.9087
2019-05-11T07:35:08.445Z,44.0125
2019-05-11T07:35:18.824Z,43.9087
2019-05-11T07:35:27.989Z,44.0125
2019-05-11T07:35:38.499Z,44.0125
2019-05-11T07:35:47.870Z,43.9087
2019-05-11T07:35:58.317Z,44.0125
2019-05-11T07:36:08.444Z,43.9087
2019-05-11T07:36:17.745Z,43.9087
2019-05-11T07:36:28.218Z,43.9087
2019-05-11T07:36:38.782Z,43.9087
2019-05-11T07:36:47.725Z,43.9087
2019-05-11T07:36:57.657Z,43.9087
2019-05-11T07:37:08.205Z,43.8110
2019-05-11T07:37:18.537Z,43.8110
2019-05-11T07:37:28.021Z,43.9087
2019-05-11T07:37:38.565Z,43.9087
2019-05-11T07:37:47.998Z,43.9087
2019-05-11T07:37:58.164Z,43.9087
2019-05-11T07:38:08.304Z,43.9087
2019-05-11T07:38:18.339Z,43.9087
2019-05-11T07:38:27.835Z,43.9087
2019-05-11T07:38:38.160Z,43.9087
2019-05-11T07:38:48.739Z,43.9087
2019-05-11T07:38:58.012Z,43.9087
2019-05-11T07:39:08.319Z,43.9087
2019-05-11T07:39:18.689Z,43.9087
2019-05-11T07:39:27.947Z,43.9087
2019-05-11T07:39:38.354Z,43.9087
2019-05-11T07:39:48.765Z,43.9087
2019-05-11T07:39:58.027Z,43.9087
2019-05-11T07:40:08.215Z,43.9087
2019-05-11T07:40:18.766Z,43.9087
2019-05-11T07:40:27.986Z,44.0125
2019-05-11T07:40:38.476Z,44.0125
2019-05-11T07:40:47.669Z,44.0125
2019-05-11T07:40:58.244Z,43.9087
2019-05-11T07:41:08.777Z,44.0125
2019-05-11T07:41:17.686Z,44.0125
2019-05-11T07:41:28.105Z,44.0125
2019-05-11T07:41:38.677Z,43.9087
2019-05-11T07:41:47.964Z,43.9087
2019-05-11T07:41:58.421Z,43.9087
2019-05-11T07:42:07.757Z,44.0125
2019-05-11T07:42:18.050Z,44.0125
2019-05-11T07:42:28.577Z,43.9087
2019-05-11T07:42:37.953Z,43.9087
2019-05-11T07:42:48.568Z,43.9087
2019-05-11T07:42:58.943Z,44.0125
2019-05-11T07:43:09.894Z,44.0125
2019-05-11T07:43:18.977Z,43.9087
2019-05-11T07:43:28.746Z,43.9087
2019-05-11T07:43:38.014Z,43.9087
2019-05-11T07:43:48.442Z,43.9087
2019-05-11T07:43:58.998Z,44.1101
2019-05-11T07:44:09.954Z,44.1101
2019-05-11T07:44:19.174Z,44.0125
2019-05-11T07:44:37.835Z,44.0125
2019-05-11T07:44:48.203Z,43.9087
2019-05-11T07:44:58.261Z,43.9087
2019-05-11T07:45:08.850Z,44.0125
2019-05-11T07:45:18.141Z,43.9087
2019-05-11T07:45:28.296Z,43.9087
2019-05-11T07:45:38.681Z,43.9087
2019-05-11T07:45:47.987Z,43.9087
2019-05-11T07:45:58.438Z,44.0125
2019-05-11T07:46:07.817Z,44.0125
2019-05-11T07:46:18.178Z,44.0125
2019-05-11T07:46:28.773Z,43.9087
2019-05-11T07:46:37.785Z,43.9087
2019-05-11T07:46:48.293Z,43.9087
2019-05-11T07:46:58.691Z,43.9087
2019-05-11T07:47:07.964Z,43.9087
2019-05-11T07:47:18.713Z,44.1101
2019-05-11T07:47:27.894Z,44.0125
2019-05-11T07:47:37.929Z,43.9087
2019-05-11T07:47:48.554Z,43.9087
2019-05-11T07:47:59.012Z,43.8110
2019-05-11T07:48:08.089Z,43.7073
2019-05-11T07:48:18.684Z,43.8110
2019-05-11T07:48:27.839Z,43.8110
2019-05-11T07:48:38.599Z,43.8110
2019-05-11T07:48:47.913Z,43.8110
2019-05-11T07:48:58.434Z,43.8110
2019-05-11T07:49:08.735Z,43.8110
2019-05-11T07:49:17.952Z,46.2036
2019-05-11T07:49:29.001Z,45.1050
2019-05-11T07:49:39.625Z,44.2078
2019-05-11T07:49:50.077Z,43.9087
2019-05-11T07:49:59.530Z,43.8110
2019-05-11T07:50:08.333Z,44.4885
2019-05-11T07:50:18.121Z,43.9880
2019-05-11T07:50:28.382Z,43.4875
2019-05-11T07:50:38.716Z,45.9595
2019-05-11T07:50:47.921Z,47.7539
2019-05-11T07:50:58.465Z,45.4407
2019-05-11T07:51:30.415Z,42.5537
2019-05-11T07:51:39.104Z,42.6514
2019-05-11T07:51:48.114Z,42.5537
2019-05-11T07:51:58.658Z,45.6421
2019-05-11T07:52:07.837Z,44.3481
2019-05-11T07:52:18.162Z,43.2495
2019-05-11T07:52:28.781Z,42.6697
2019-05-11T07:52:37.954Z,42.5720
2019-05-11T07:52:48.314Z,42.5720
2019-05-11T07:52:58.898Z,42.8711
2019-05-11T07:53:08.214Z,44.3665
2019-05-11T07:53:18.610Z,44.2444
2019-05-11T07:53:27.896Z,43.4509
2019-05-11T07:53:38.088Z,42.8528
2019-05-11T07:53:48.684Z,42.4500
2019-05-11T07:53:57.805Z,42.2546
2019-05-11T07:54:08.443Z,42.4500
2019-05-11T07:54:18.728Z,42.0532
2019-05-11T07:54:28.078Z,42.0532
2019-05-11T07:54:38.549Z,42.3523
2019-05-11T07:54:52.036Z,42.1509
2019-05-11T07:55:01.485Z,42.0532
2019-05-11T07:55:09.928Z,42.0532
2019-05-11T07:55:18.960Z,42.1509
2019-05-11T07:55:28.322Z,42.4500
2019-05-11T07:55:38.496Z,42.5537
2019-05-11T07:55:48.455Z,47.1375
2019-05-11T07:55:57.770Z,43.2312
2019-05-11T07:56:08.265Z,42.3340
2019-05-11T07:56:18.752Z,42.1326
2019-05-11T07:56:28.482Z,43.6279
2019-05-11T07:56:39.099Z,45.5994
2019-05-11T08:36:51.826Z,47.9553
2019-05-11T08:37:00.241Z,47.9553
2019-05-11T08:37:08.920Z,47.9553
2019-05-11T08:37:18.922Z,47.9553
2019-05-11T08:37:28.397Z,47.9553
2019-05-11T08:37:38.754Z,47.9553
2019-05-11T08:37:47.986Z,47.9553
2019-05-11T08:37:58.155Z,47.9553
2019-05-11T08:38:08.821Z,47.9553
2019-05-11T08:38:18.045Z,47.9553
2019-05-11T08:38:28.566Z,47.9553
2019-05-11T08:38:37.820Z,47.9553
2019-05-11T08:38:48.254Z,47.9553
2019-05-11T08:38:58.573Z,47.9553
2019-05-11T08:39:07.872Z,47.9553
2019-05-11T08:39:18.194Z,47.9553
2019-05-11T08:39:28.821Z,47.9553
2019-05-11T08:39:37.940Z,47.9553
2019-05-11T08:39:48.192Z,47.8516
2019-05-11T08:39:58.516Z,47.8516
2019-05-11T08:40:07.832Z,47.8516
2019-05-11T08:40:18.275Z,47.9736
2019-05-11T08:40:28.920Z,47.8760
2019-05-11T08:40:38.003Z,47.8760
2019-05-11T08:40:48.444Z,47.8760
2019-05-11T08:40:58.993Z,47.9736
2019-05-11T08:41:08.180Z,47.9736
2019-05-11T08:41:18.417Z,47.9736
2019-05-11T08:41:27.942Z,47.9736
2019-05-11T08:41:38.393Z,47.9980
2019-05-11T08:41:48.765Z,47.9980
2019-05-11T08:41:58.946Z,48.1018
2019-05-11T08:42:08.774Z,48.1018
2019-05-11T08:42:17.911Z,48.1018
2019-05-11T08:42:28.648Z,48.1995
2019-05-11T08:42:37.977Z,48.2239
2019-05-11T08:42:48.188Z,48.3215
2019-05-11T08:42:58.298Z,48.3215
2019-05-11T08:43:08.815Z,48.4253
2019-05-11T08:43:17.945Z,48.4436
2019-05-11T08:43:28.567Z,48.4436
2019-05-11T08:43:38.855Z,48.5474
2019-05-11T08:43:48.042Z,48.6450
2019-05-11T08:43:58.741Z,48.6450
2019-05-11T08:44:08.945Z,48.6694
2019-05-11T08:44:18.163Z,48.7732
2019-05-11T08:44:28.771Z,48.7732
2019-05-11T08:44:38.015Z,48.8708
2019-05-11T08:44:48.311Z,48.8953
2019-05-11T08:45:14.710Z,48.9929
2019-05-11T08:45:20.414Z,49.0967
2019-05-11T08:45:27.843Z,49.1211
2019-05-11T08:45:39.093Z,49.2188
2019-05-11T08:45:48.540Z,49.3225
2019-05-11T08:45:57.864Z,49.3469
2019-05-11T08:46:07.943Z,49.3469
2019-05-11T08:46:18.521Z,49.4446
2019-05-11T08:46:27.916Z,49.5483
2019-05-11T08:46:38.571Z,49.5667
2019-05-11T08:46:47.900Z,49.6704
2019-05-11T08:46:58.230Z,49.6704
2019-05-11T08:47:08.492Z,49.7681
2019-05-11T08:47:17.791Z,49.8962
2019-05-11T08:47:28.375Z,49.8962
2019-05-11T08:47:37.748Z,49.9939
2019-05-11T08:47:48.416Z,50.0183
2019-05-11T08:47:57.936Z,50.1221
2019-05-11T08:48:08.134Z,50.2197
2019-05-11T08:48:18.701Z,50.3235
2019-05-11T08:48:28.299Z,50.3479
2019-05-11T08:48:38.804Z,50.4456
2019-05-11T08:48:47.960Z,50.4456
2019-05-11T08:48:56.447Z,50.5737
2019-05-11T08:49:04.859Z,50.6714
2019-05-11T08:49:15.628Z,50.6714
2019-05-11T08:49:25.099Z,50.7751
2019-05-11T08:49:33.567Z,50.7996
2019-05-11T08:49:41.982Z,50.8972
2019-05-11T08:49:50.398Z,50.8972
2019-05-11T08:49:59.106Z,51.0010
2019-05-11T08:50:08.151Z,51.0254
2019-05-11T08:50:18.768Z,51.1230
2019-05-11T08:50:28.054Z,51.2268
2019-05-11T08:50:38.272Z,51.2268
2019-05-11T08:50:48.850Z,51.3489
2019-05-11T08:50:58.223Z,51.3489
2019-05-11T08:51:08.421Z,51.4526
2019-05-11T08:51:18.659Z,51.5747
2019-05-11T08:51:27.942Z,51.5747
2019-05-11T08:51:38.632Z,51.6785
2019-05-11T08:51:47.880Z,51.8066
2019-05-11T08:51:57.859Z,51.8066
2019-05-11T08:52:08.175Z,51.9043
2019-05-11T08:52:18.686Z,51.9287
2019-05-11T08:52:28.032Z,52.0325
2019-05-11T08:52:38.683Z,52.0325
2019-05-11T08:52:47.855Z,52.1301
2019-05-11T08:52:58.091Z,52.2583
2019-05-11T08:53:08.586Z,52.2583
2019-05-11T08:53:17.829Z,52.3560
2019-05-11T08:53:28.447Z,52.3560
2019-05-11T08:53:38.738Z,52.4841
2019-05-11T08:53:48.049Z,52.5879
2019-05-11T08:53:58.363Z,52.6123
2019-05-11T08:54:08.963Z,52.7100
2019-05-11T08:54:18.270Z,52.8137
2019-05-11T08:54:28.902Z,52.8137
2019-05-11T08:54:38.214Z,52.9419
2019-05-11T08:54:48.655Z,53.0396
2019-05-11T08:54:57.878Z,53.1433
2019-05-11T08:55:08.359Z,53.1677
2019-05-11T08:55:19.046Z,53.2715
2019-05-11T08:55:28.988Z,53.3691
2019-05-11T08:55:38.329Z,53.3936
2019-05-11T08:55:48.522Z,53.4973
2019-05-11T08:55:58.860Z,53.4973
2019-05-11T08:56:10.068Z,53.6011
2019-05-11T08:56:21.771Z,53.7231
2019-05-11T08:56:30.193Z,53.7231
2019-05-11T08:56:38.641Z,53.8269
2019-05-11T08:56:48.644Z,53.8513
2019-05-11T08:56:58.774Z,53.9551
2019-05-11T08:57:08.182Z,54.0527
2019-05-11T08:57:17.969Z,54.0527
2019-05-11T08:57:28.586Z,54.1565
2019-05-11T08:57:38.755Z,54.1809
2019-05-11T08:57:48.068Z,54.1809
2019-05-11T08:57:58.530Z,54.1809
2019-05-11T08:58:07.882Z,54.2847
2019-05-11T08:58:19.328Z,54.2847
2019-05-11T08:58:28.100Z,54.3884
2019-05-11T08:58:37.981Z,54.3884
2019-05-11T08:58:49.023Z,54.3884
2019-05-11T08:58:58.899Z,54.4861
2019-05-11T08:59:08.035Z,54.5105
2019-05-11T08:59:18.655Z,54.5105
2019-05-11T08:59:27.939Z,54.5105
2019-05-11T08:59:38.095Z,54.5105
2019-05-11T08:59:48.557Z,54.5105
2019-05-11T08:59:57.914Z,54.5105
2019-05-11T09:00:08.539Z,54.5105
2019-05-11T09:00:17.967Z,54.5105
2019-05-11T09:00:28.385Z,54.5105
2019-05-11T09:00:38.898Z,54.5105
2019-05-11T09:00:47.862Z,54.5105
2019-05-11T09:00:58.327Z,54.5105
2019-05-11T09:01:08.801Z,54.5105
2019-05-11T09:01:18.334Z,54.5105
2019-05-11T09:01:28.672Z,54.5105
2019-05-11T09:01:39.330Z,54.5105
2019-05-11T09:01:48.506Z,54.5105
2019-05-11T09:01:58.760Z,54.5105
2019-05-11T09:02:08.137Z,54.5105
2019-05-11T09:02:18.607Z,54.5105
2019-05-11T09:02:27.773Z,54.4128
2019-05-11T09:02:38.352Z,54.4128
2019-05-11T09:02:50.431Z,54.4128
2019-05-11T09:02:59.416Z,54.5105
2019-05-11T09:03:08.497Z,54.4128
2019-05-11T09:03:17.844Z,54.5105
2019-05-11T09:03:28.467Z,54.5105
2019-05-11T09:03:38.777Z,54.5105
2019-05-11T09:03:47.855Z,54.4128
2019-05-11T09:03:58.323Z,54.4128
2019-05-11T09:04:08.929Z,54.4128
2019-05-11T09:04:18.349Z,54.4128
2019-05-11T09:04:28.790Z,54.4128
2019-05-11T09:04:41.684Z,54.4128
2019-05-11T09:04:50.387Z,54.4128
2019-05-11T09:04:59.086Z,54.4128
2019-05-11T09:05:08.310Z,54.4128
2019-05-11T09:05:18.695Z,54.4128
2019-05-11T09:05:28.025Z,54.4128
2019-05-11T09:05:38.425Z,54.4128
2019-05-11T09:05:48.588Z,54.5105
2019-05-11T09:05:57.922Z,54.5105
2019-05-11T09:06:08.376Z,54.5105
2019-05-11T09:06:17.878Z,54.5105
2019-05-11T09:06:28.365Z,54.5105
2019-05-11T09:06:37.664Z,54.5105
2019-05-11T09:06:47.979Z,54.5105
2019-05-11T09:06:58.458Z,54.5105
2019-05-11T09:07:07.853Z,54.5105
2019-05-11T09:07:18.457Z,54.5105
2019-05-11T09:07:27.767Z,54.5105
2019-05-11T09:07:38.471Z,54.5105
2019-05-11T09:07:48.423Z,54.5105
2019-05-11T09:07:57.780Z,54.5105
2019-05-11T09:08:08.195Z,54.6143
2019-05-11T09:08:18.852Z,54.6143
2019-05-11T09:08:28.312Z,54.5105
2019-05-11T09:08:38.820Z,54.6143
2019-05-11T09:08:49.297Z,54.6143
2019-05-11T09:08:58.443Z,54.6143
2019-05-11T09:09:08.890Z,54.6143
2019-05-11T09:09:18.589Z,54.6143
2019-05-11T09:09:28.664Z,54.6143
2019-05-11T09:09:38.003Z,54.6143
2019-05-11T09:09:48.371Z,54.6143
2019-05-11T09:09:58.603Z,54.6143
2019-05-11T09:10:08.182Z,54.6143
2019-05-11T09:10:18.523Z,54.6143
2019-05-11T09:10:28.051Z,54.6143
2019-05-11T09:10:39.279Z,54.6143
2019-05-11T09:10:49.005Z,54.5105
2019-05-11T09:10:58.326Z,54.5105
2019-05-11T09:11:08.420Z,54.6143
2019-05-11T09:11:19.072Z,54.6143
2019-05-11T09:11:28.407Z,54.6143
2019-05-11T09:11:38.919Z,54.6143
2019-05-11T09:11:48.098Z,54.6143
2019-05-11T09:11:58.894Z,54.6143
2019-05-11T09:12:07.918Z,54.6143
2019-05-11T09:12:18.296Z,54.6143
2019-05-11T09:12:28.800Z,54.6143
2019-05-11T09:12:38.250Z,54.6143
2019-05-11T09:12:48.775Z,54.6143
2019-05-11T09:12:59.134Z,54.6143
2019-05-11T09:13:08.098Z,54.6143
2019-05-11T09:13:18.560Z,54.7180
2019-05-11T09:13:27.942Z,54.7180
2019-05-11T09:13:36.521Z,54.7180
2019-05-11T09:13:44.919Z,54.7180
2019-05-11T09:13:53.331Z,54.7180
2019-05-11T09:14:01.727Z,54.7180
2019-05-11T09:14:10.144Z,54.7180
2019-05-11T09:14:18.964Z,54.7180
2019-05-11T09:14:28.335Z,54.7180
2019-05-11T09:14:38.705Z,54.7180
2019-05-11T09:14:47.848Z,54.7424
2019-05-11T09:14:58.115Z,54.7180
2019-05-11T09:15:08.713Z,54.7180
2019-05-11T09:15:32.343Z,54.7180
2019-05-11T09:15:36.957Z,54.7180
2019-05-11T09:15:48.241Z,54.7180
2019-05-11T09:15:58.813Z,54.7180
2019-05-11T09:16:08.003Z,54.7180
2019-05-11T09:16:18.712Z,54.8157
2019-05-11T09:16:29.101Z,54.8157
2019-05-11T09:16:38.272Z,54.8157
2019-05-11T09:16:48.870Z,54.8157
2019-05-11T09:16:57.861Z,54.8157
2019-05-11T09:17:07.851Z,54.8157
2019-05-11T09:17:18.212Z,54.8157
2019-05-11T09:17:28.913Z,54.8157
2019-05-11T09:17:38.169Z,54.8157
2019-05-11T09:17:48.763Z,54.8157
2019-05-11T09:17:57.833Z,54.8157
2019-05-11T09:18:08.444Z,54.8157
2019-05-11T09:18:18.715Z,54.8157
2019-05-11T09:18:27.984Z,54.8157
2019-05-11T09:18:38.615Z,54.8157
2019-05-11T09:18:47.990Z,54.8157
2019-05-11T09:18:58.157Z,54.8157
2019-05-11T09:19:08.845Z,54.8157
2019-05-11T09:19:17.898Z,54.8157
2019-05-11T09:19:28.418Z,54.8157
2019-05-11T09:19:38.818Z,54.8157
2019-05-11T09:19:48.103Z,54.8157
2019-05-11T09:19:58.177Z,54.8157
2019-05-11T09:20:08.764Z,54.8157
2019-05-11T09:20:17.967Z,54.8157
2019-05-11T09:20:28.539Z,54.8157
2019-05-11T09:20:37.792Z,54.8157
2019-05-11T09:20:48.551Z,54.8157
2019-05-11T09:20:57.747Z,54.8157
2019-05-11T09:21:08.381Z,54.8157
2019-05-11T09:21:19.055Z,54.8157
2019-05-11T09:21:28.247Z,54.8157
2019-05-11T09:21:38.252Z,54.9194
2019-05-11T09:21:48.186Z,54.9194
2019-05-11T09:21:58.822Z,54.9194
2019-05-11T09:22:08.239Z,55.0232
2019-05-11T09:22:18.676Z,55.0232
2019-05-11T09:22:28.404Z,55.1208
2019-05-11T09:22:38.101Z,55.2246
2019-05-11T09:22:48.489Z,55.2002
2019-05-11T09:22:58.934Z,55.2002
2019-05-11T09:23:08.204Z,55.0720
2019-05-11T09:23:30.928Z,54.9438
2019-05-11T09:23:37.297Z,54.7180
2019-05-11T09:23:45.502Z,54.4861
2019-05-11T09:23:53.914Z,54.2603
2019-05-11T09:24:02.321Z,54.0527
2019-05-11T09:24:10.763Z,53.8269
2019-05-11T09:24:19.170Z,53.6011
2019-05-11T09:24:28.208Z,53.3691
2019-05-11T09:24:38.682Z,53.1433
2019-05-11T09:24:47.722Z,52.8137
2019-05-11T09:24:58.287Z,52.5879
2019-05-11T09:25:08.821Z,52.2583
2019-05-11T09:25:18.348Z,52.0325
2019-05-11T09:25:27.768Z,51.7090
2019-05-11T09:25:38.325Z,51.4771
2019-05-11T09:25:47.705Z,51.1536
2019-05-11T09:25:58.294Z,50.9277
2019-05-11T09:26:08.725Z,50.5981
2019-05-11T09:26:18.325Z,50.3723
2019-05-11T09:26:28.591Z,50.1526
2019-05-11T09:26:38.823Z,49.9268
2019-05-11T09:26:48.008Z,49.7009
2019-05-11T09:26:58.578Z,49.5972
2019-05-11T09:27:07.793Z,49.3713
2019-05-11T09:27:18.416Z,49.2737
2019-05-11T09:27:28.600Z,49.0479
2019-05-11T09:27:37.628Z,48.9258
2019-05-11T09:27:48.182Z,48.8281
2019-05-11T09:27:58.736Z,48.7000
2019-05-11T09:28:08.523Z,48.7000
2019-05-11T09:28:18.074Z,48.6023
2019-05-11T09:28:29.271Z,48.5779
2019-05-11T09:28:38.547Z,48.4802
2019-05-11T09:28:47.657Z,48.4558
2019-05-11T09:28:58.149Z,48.4558
2019-05-11T09:29:08.749Z,48.4558
2019-05-11T09:29:18.052Z,48.4558
2019-05-11T09:29:28.199Z,48.3521
2019-05-11T09:29:38.722Z,48.4314
2019-05-11T09:29:47.964Z,48.4314
2019-05-11T09:29:58.726Z,48.4314
2019-05-11T09:30:08.270Z,48.4314
2019-05-11T09:30:18.436Z,48.4314
2019-05-11T09:30:28.819Z,48.5291
2019-05-11T09:30:37.822Z,48.5291
2019-05-11T09:30:48.184Z,48.5291
2019-05-11T09:30:57.772Z,48.5291
2019-05-11T09:31:08.446Z,48.6084
2019-05-11T09:31:18.796Z,48.6084
2019-05-11T09:31:27.961Z,48.6084
2019-05-11T09:31:38.153Z,48.6084
2019-05-11T09:31:48.722Z,48.7122
2019-05-11T09:31:58.312Z,48.7122
2019-05-11T09:32:08.798Z,48.7122
2019-05-11T09:32:17.977Z,48.7122
2019-05-11T09:32:28.503Z,48.8098
2019-05-11T09:32:38.481Z,48.8098
2019-05-11T09:32:47.778Z,48.8098
2019-05-11T09:32:58.138Z,48.9075
2019-05-11T09:33:08.610Z,48.9075
2019-05-11T09:33:20.499Z,48.9075
2019-05-11T09:33:29.130Z,48.9075
2019-05-11T09:33:38.570Z,49.0112
2019-05-11T09:33:47.984Z,49.0112
2019-05-11T09:33:58.468Z,49.0112
2019-05-11T09:34:09.006Z,49.0112
2019-05-11T09:34:18.221Z,49.0112
2019-05-11T09:34:28.778Z,49.1089
2019-05-11T09:34:37.816Z,49.1089
2019-05-11T09:34:48.527Z,49.1089
2019-05-11T09:34:57.985Z,49.1089
2019-05-11T09:35:08.354Z,49.1089
2019-05-11T09:35:18.958Z,49.0845
2019-05-11T09:35:29.179Z,49.0845
2019-05-11T09:35:47.616Z,49.1089
2019-05-11T09:35:53.517Z,49.1882
2019-05-11T09:36:02.085Z,49.1882
2019-05-11T09:36:10.551Z,49.1882
2019-05-11T09:36:18.997Z,49.1882
2019-05-11T09:36:28.561Z,49.1882
2019-05-11T09:36:38.900Z,49.1882
2019-05-11T09:36:47.983Z,49.1882
2019-05-11T09:36:58.676Z,49.1882
2019-05-11T09:37:07.957Z,49.1882
2019-05-11T09:37:18.403Z,49.1882
2019-05-11T09:37:27.734Z,49.2859
2019-05-11T09:37:38.062Z,49.2859
2019-05-11T09:37:48.443Z,49.2859
2019-05-11T09:37:58.755Z,49.2859
2019-05-11T09:38:08.027Z,49.2859
2019-05-11T09:38:18.490Z,49.2859
2019-05-11T09:38:27.738Z,49.2859
2019-05-11T09:38:38.282Z,49.2859
2019-05-11T09:38:48.958Z,49.2859
2019-05-11T09:38:58.232Z,49.2859
2019-05-11T09:39:08.410Z,49.2859
2019-05-11T09:39:17.741Z,49.2859
2019-05-11T09:39:28.080Z,49.2859
2019-05-11T09:39:38.333Z,49.2859
2019-05-11T09:39:47.878Z,49.2859
2019-05-11T09:39:58.360Z,49.2859
2019-05-11T09:40:07.840Z,49.2859
2019-05-11T09:40:18.281Z,49.2859
2019-05-11T09:40:28.383Z,49.2859
2019-05-11T09:40:38.613Z,49.3896
2019-05-11T09:40:47.972Z,49.3896
2019-05-11T09:40:58.516Z,49.3896
2019-05-11T09:41:08.979Z,49.3896
2019-05-11T09:41:20.319Z,49.3896
2019-05-11T09:41:29.043Z,49.3896
2019-05-11T09:41:38.270Z,49.3896
2019-05-11T09:41:48.835Z,49.3896
2019-05-11T09:41:58.430Z,49.3896
2019-05-11T09:42:07.712Z,49.3896
2019-05-11T09:42:17.933Z,49.3896
2019-05-11T09:42:28.487Z,49.3896
2019-05-11T09:42:38.832Z,49.3896
2019-05-11T09:42:48.032Z,49.3896
2019-05-11T09:42:58.494Z,49.3896
2019-05-11T09:43:08.514Z,49.3896
2019-05-11T09:43:17.844Z,49.3896
2019-05-11T09:43:28.348Z,49.3896
2019-05-11T09:43:37.728Z,49.3896
2019-05-11T09:43:48.240Z,49.3896
2019-05-11T09:43:58.731Z,49.3896
2019-05-11T09:44:09.040Z,49.3896
2019-05-11T09:44:18.220Z,49.3896
2019-05-11T09:44:28.872Z,49.3896
2019-05-11T09:44:38.112Z,49.3896
2019-05-11T09:44:48.496Z,49.3896
2019-05-11T09:44:57.791Z,49.3896
2019-05-11T09:45:08.044Z,49.3896
2019-05-11T09:45:18.673Z,49.4873
2019-05-11T09:45:27.863Z,49.4873
2019-05-11T09:45:47.440Z,49.4873
2019-05-11T09:45:51.893Z,49.4873
2019-05-11T09:46:00.624Z,49.4873
2019-05-11T09:46:09.031Z,49.4873
2019-05-11T09:46:18.843Z,49.4873
2019-05-11T09:46:27.965Z,49.4873
2019-05-11T09:46:38.424Z,49.4873
2019-05-11T09:46:47.801Z,49.4873
2019-05-11T09:46:59.953Z,49.4873
2019-05-11T09:47:10.793Z,49.4873
2019-05-11T09:47:19.233Z,49.4873
2019-05-11T09:47:28.046Z,49.4873
2019-05-11T09:47:38.597Z,49.4873
2019-05-11T09:47:47.862Z,49.4873
2019-05-11T09:47:58.196Z,49.4873
2019-05-11T09:48:08.601Z,49.4873
2019-05-11T09:48:17.969Z,49.5850
2019-05-11T09:48:28.415Z,49.4873
2019-05-11T09:48:37.844Z,49.4873
2019-05-11T09:48:48.308Z,49.4873
2019-05-11T09:48:58.992Z,49.4873
2019-05-11T09:49:08.163Z,49.4873
2019-05-11T09:49:18.498Z,49.4873
2019-05-11T09:49:43.430Z,49.4873
2019-05-11T09:49:47.522Z,49.4873
2019-05-11T09:49:58.031Z,49.4873
2019-05-11T09:50:08.548Z,49.4873
2019-05-11T09:50:17.895Z,49.4873
2019-05-11T09:50:28.389Z,49.4873
2019-05-11T09:50:38.785Z,49.4873
2019-05-11T09:50:48.112Z,49.4873
2019-05-11T09:50:58.680Z,49.4873
2019-05-11T09:51:07.836Z,49.4873
2019-05-11T09:51:18.467Z,49.4873
2019-05-11T09:51:28.770Z,49.4873
2019-05-11T09:51:38.005Z,49.4873
2019-05-11T09:51:48.272Z,49.4873
2019-05-11T09:51:58.921Z,49.4873
2019-05-11T09:52:07.901Z,49.4873
2019-05-11T09:52:18.328Z,49.4873
2019-05-11T09:52:27.610Z,49.4873
2019-05-11T09:52:38.260Z,49.4873
2019-05-11T09:52:48.949Z,49.4873
2019-05-11T09:52:58.193Z,49.4873
2019-05-11T09:53:08.551Z,49.4873
2019-05-11T09:53:17.690Z,49.4873
2019-05-11T09:53:28.348Z,49.4873
2019-05-11T09:53:38.842Z,49.4873
2019-05-11T09:53:48.229Z,49.4873
2019-05-11T09:53:58.731Z,49.4873
2019-05-11T09:54:08.006Z,49.4873
2019-05-11T09:54:18.240Z,49.4873
2019-05-11T09:54:28.951Z,49.4873
2019-05-11T09:54:38.393Z,49.4873
2019-05-11T09:54:48.737Z,49.3896
2019-05-11T09:54:57.996Z,49.4873
2019-05-11T09:55:08.556Z,49.4873
2019-05-11T09:55:19.050Z,49.3896
2019-05-11T09:55:28.323Z,49.3896
2019-05-11T09:55:38.880Z,49.3896
2019-05-11T09:55:48.111Z,49.3896
2019-05-11T09:55:58.674Z,49.3896
2019-05-11T09:56:08.091Z,49.3896
2019-05-11T09:56:18.423Z,49.3896
2019-05-11T09:56:28.717Z,49.3896
2019-05-11T09:56:38.217Z,49.3896
2019-05-11T09:56:48.616Z,49.3896
2019-05-11T09:56:57.870Z,49.3896
2019-05-11T09:57:08.322Z,49.3896
2019-05-11T09:57:18.477Z,49.3896
2019-05-11T09:57:27.669Z,49.4873
2019-05-11T09:57:38.217Z,49.4873